createdAt,value
2023-05-05T00:03:56.478Z,101336.97
2023-05-05T00:09:00.410Z,101279.25
2023-05-05T00:14:04.700Z,101347.13
2023-05-05T00:19:09.022Z,101331.69
2023-05-05T00:24:13.186Z,101335.88
2023-05-05T00:29:17.365Z,101342.00
2023-05-05T00:34:21.310Z,101333.34
2023-05-05T00:39:25.445Z,101331.28
2023-05-05T00:44:42.588Z,101307.75
2023-05-05T00:49:46.996Z,101305.16
2023-05-05T00:54:51.104Z,101292.75
2023-05-05T00:59:57.162Z,101251.00
2023-05-05T01:05:01.306Z,101302.50
2023-05-05T01:10:27.213Z,101287.47
2023-05-05T01:15:43.747Z,101276.66
2023-05-05T01:21:00.574Z,101285.25
2023-05-05T01:26:54.596Z,101274.59
2023-05-05T01:32:09.484Z,101266.97
2023-05-05T01:37:23.143Z,101270.72
2023-05-05T01:42:29.310Z,101261.00
2023-05-05T01:47:33.477Z,101214.75
2023-05-05T01:52:39.496Z,101217.72
2023-05-05T01:57:46.702Z,101207.88
2023-05-05T02:02:51.937Z,101200.56
2023-05-05T02:08:00.045Z,101190.50
2023-05-05T02:13:05.321Z,101207.34
2023-05-05T02:18:10.746Z,101214.41
2023-05-05T02:23:14.795Z,101237.09
2023-05-05T02:28:24.117Z,101227.50
2023-05-05T02:33:32.651Z,101203.69
2023-05-05T02:38:40.335Z,101196.72
2023-05-05T02:43:45.431Z,101243.56
2023-05-05T02:48:49.769Z,101218.28
2023-05-05T02:53:53.802Z,101229.34
2023-05-05T02:59:16.334Z,101228.13
2023-05-05T03:04:32.516Z,101237.66
2023-05-05T03:10:12.280Z,101232.66
2023-05-05T03:15:26.108Z,101244.69
2023-05-05T03:20:31.982Z,101202.19
2023-05-05T03:25:46.646Z,101204.38
2023-05-05T03:30:59.466Z,101239.84
2023-05-05T03:36:04.112Z,101219.00
2023-05-05T03:41:08.460Z,101242.09
2023-05-05T03:46:12.741Z,101238.34
2023-05-05T03:51:17.166Z,101234.72
2023-05-05T03:56:21.671Z,101238.53
2023-05-05T04:01:25.760Z,101246.44
2023-05-05T04:07:06.861Z,101244.38
2023-05-05T04:12:12.432Z,101247.97
2023-05-05T04:17:17.445Z,101250.19
2023-05-05T04:22:21.408Z,101229.63
2023-05-05T04:27:27.013Z,101222.97
2023-05-05T04:32:30.925Z,101187.88
2023-05-05T04:37:35.482Z,101243.78
2023-05-05T04:42:40.060Z,101216.84
2023-05-05T04:47:44.631Z,101236.66
2023-05-05T04:52:49.146Z,101228.44
2023-05-05T04:57:54.759Z,101215.59
2023-05-05T05:03:00.478Z,101228.03
2023-05-05T05:08:05.740Z,101220.72
2023-05-05T05:13:12.426Z,101217.66
2023-05-05T05:18:17.634Z,101212.06
2023-05-05T05:23:22.277Z,101197.56
2023-05-05T05:28:26.594Z,101181.94
2023-05-05T05:33:34.715Z,101181.50
2023-05-05T05:38:38.878Z,101172.41
2023-05-05T05:43:44.000Z,101119.25
2023-05-05T05:48:48.436Z,101162.38
2023-05-05T05:53:52.454Z,101168.34
2023-05-05T05:58:56.404Z,101160.22
2023-05-05T06:04:00.577Z,101155.22
2023-05-05T06:09:04.934Z,101094.22
2023-05-05T06:14:10.477Z,101139.09
2023-05-05T06:19:14.821Z,101129.56
2023-05-05T06:24:19.909Z,101120.38
2023-05-05T06:29:23.986Z,101104.38
2023-05-05T06:34:28.132Z,101121.38
2023-05-05T06:39:32.121Z,101115.69
2023-05-05T06:44:37.328Z,101106.03
2023-05-05T06:49:41.303Z,101095.97
2023-05-05T06:54:45.299Z,101084.38
2023-05-05T06:59:49.398Z,101081.94
2023-05-05T07:04:55.832Z,101069.63
2023-05-05T07:10:00.183Z,101059.25
2023-05-05T07:15:15.433Z,101058.13
2023-05-05T07:20:27.937Z,101051.47
2023-05-05T07:25:31.820Z,101053.94
2023-05-05T07:30:35.913Z,101060.16
2023-05-05T07:35:40.044Z,101052.19
2023-05-05T07:40:43.978Z,101045.22
2023-05-05T07:45:48.083Z,101041.97
2023-05-05T07:50:53.342Z,101036.94
2023-05-05T07:55:57.457Z,101035.13
2023-05-05T08:01:01.999Z,101033.63
2023-05-05T08:06:13.102Z,101020.97
2023-05-05T08:11:17.899Z,101025.97
2023-05-05T08:16:22.118Z,101024.97
2023-05-05T08:21:26.172Z,101011.88
2023-05-05T08:26:30.241Z,101012.25
2023-05-05T08:31:35.842Z,101021.31
2023-05-05T08:36:40.010Z,101013.94
2023-05-05T08:41:44.100Z,101007.97
2023-05-05T08:46:50.051Z,101001.53
2023-05-05T08:51:55.677Z,101005.44
2023-05-05T08:57:02.650Z,100998.66
2023-05-05T09:02:09.370Z,100993.09
2023-05-05T09:07:13.495Z,100994.50
2023-05-05T09:12:19.360Z,100987.06
2023-05-05T09:17:27.679Z,100980.25
2023-05-05T09:22:39.810Z,100993.44
2023-05-05T09:27:48.762Z,100983.06
2023-05-05T09:32:55.316Z,100978.50
2023-05-05T09:38:13.154Z,100970.84
2023-05-05T09:43:19.365Z,100964.69
2023-05-05T09:48:31.948Z,100970.59
2023-05-05T09:53:41.642Z,100974.69
2023-05-05T09:58:45.678Z,100983.88
2023-05-05T10:03:53.280Z,100962.38
2023-05-05T10:09:03.488Z,100982.94
2023-05-05T10:14:08.625Z,100985.81
2023-05-05T10:19:15.481Z,100975.41
2023-05-05T10:24:51.206Z,100989.41
2023-05-05T10:30:08.788Z,100983.78
2023-05-05T10:35:28.067Z,100986.78
2023-05-05T10:40:32.931Z,100947.94
2023-05-05T10:45:38.721Z,100989.50
2023-05-05T10:50:52.355Z,100998.13
2023-05-05T10:56:14.640Z,100983.72
2023-05-05T11:01:32.426Z,100980.59
2023-05-05T11:06:36.643Z,100989.84
2023-05-05T11:12:14.836Z,100977.78
2023-05-05T11:17:48.525Z,100986.03
2023-05-05T11:23:14.577Z,100975.22
2023-05-05T11:28:26.732Z,100983.38
2023-05-05T11:33:39.262Z,100942.47
2023-05-05T11:39:09.815Z,100989.22
2023-05-05T11:44:21.145Z,100983.00
2023-05-05T11:49:33.785Z,100981.16
2023-05-05T11:54:48.474Z,100974.13
2023-05-05T12:00:04.801Z,100980.47
2023-05-05T12:05:21.323Z,100984.72
2023-05-05T12:10:25.534Z,100981.50
2023-05-05T12:15:33.415Z,100985.44
2023-05-05T12:20:38.212Z,100973.38
2023-05-05T12:25:42.284Z,100989.63
2023-05-05T12:30:59.701Z,100992.72
2023-05-05T12:36:05.286Z,100981.88
2023-05-05T12:41:09.231Z,100984.06
2023-05-05T12:53:07.164Z,100995.25
2023-05-05T12:58:11.350Z,100987.34
2023-05-05T13:03:21.991Z,100986.28
2023-05-05T13:08:43.944Z,100991.13
2023-05-05T13:13:48.038Z,100987.16
2023-05-05T13:18:52.698Z,100983.22
2023-05-05T13:24:05.087Z,100977.81
2023-05-05T13:29:18.134Z,100997.66
2023-05-05T13:34:21.953Z,101002.34
2023-05-05T13:39:26.098Z,101008.78
2023-05-05T13:44:30.168Z,101012.69
2023-05-05T13:49:35.317Z,101009.53
2023-05-05T13:54:39.462Z,101006.13
2023-05-05T13:59:43.452Z,101011.91
2023-05-05T14:12:00.279Z,100982.16
2023-05-05T14:17:04.558Z,101016.94
2023-05-05T14:22:08.850Z,101021.41
2023-05-05T14:27:13.401Z,101025.19
2023-05-05T14:32:17.782Z,101035.63
2023-05-05T14:37:21.987Z,101036.31
2023-05-05T14:42:27.318Z,101047.22
2023-05-05T14:47:31.412Z,101040.25
2023-05-05T14:52:35.319Z,101040.63
2023-05-05T14:57:39.553Z,101033.75
2023-05-05T15:02:43.943Z,101042.09
2023-05-05T15:07:48.131Z,101045.66
2023-05-05T15:12:52.017Z,101042.63
2023-05-05T15:17:55.928Z,101044.88
2023-05-05T15:23:00.182Z,101033.78
2023-05-05T15:28:03.958Z,101025.69
2023-05-05T15:33:08.161Z,101034.91
2023-05-05T15:38:13.994Z,101035.09
2023-05-05T15:43:18.183Z,101038.19
2023-05-05T15:48:22.081Z,101036.38
2023-05-05T15:53:27.640Z,101032.34
2023-05-05T15:58:31.599Z,101038.78
2023-05-05T16:03:35.512Z,101041.56
2023-05-05T16:08:40.559Z,101043.09
2023-05-05T16:13:44.429Z,101046.19
2023-05-05T16:18:48.775Z,101045.34
2023-05-05T16:23:52.636Z,101045.81
2023-05-05T16:28:56.733Z,101051.00
2023-05-05T16:34:01.920Z,101062.44
2023-05-05T16:39:05.811Z,101050.91
2023-05-05T16:44:09.840Z,101057.69
2023-05-05T16:49:13.886Z,101003.97
2023-05-05T16:54:17.872Z,101055.75
2023-05-05T16:59:22.110Z,101047.09
2023-05-05T17:04:26.675Z,101011.78
2023-05-05T17:09:30.920Z,101059.41
2023-05-05T17:14:34.724Z,101066.16
2023-05-05T17:19:38.760Z,101062.50
2023-05-05T17:24:43.964Z,101058.50
2023-05-05T17:29:48.012Z,101068.81
2023-05-05T17:34:51.842Z,101065.81
2023-05-05T17:39:56.067Z,101068.72
2023-05-05T17:45:01.266Z,101009.66
2023-05-05T17:50:08.383Z,101057.53
2023-05-05T17:55:12.671Z,101064.22
2023-05-05T18:00:17.515Z,101072.25
2023-05-05T18:05:21.870Z,101053.66
2023-05-05T18:10:26.405Z,101053.72
2023-05-05T18:15:33.822Z,101069.41
2023-05-05T18:20:37.805Z,101059.31
2023-05-05T18:25:42.386Z,101068.88
2023-05-05T18:30:46.315Z,101071.78
2023-05-05T18:35:50.384Z,101062.78
2023-05-05T18:40:54.201Z,101060.91
2023-05-05T18:45:58.201Z,101004.66
2023-05-05T18:51:03.266Z,101059.25
2023-05-05T18:56:07.937Z,101063.31
2023-05-05T19:01:11.933Z,101065.06
2023-05-05T19:06:16.582Z,101057.47
2023-05-05T19:11:21.252Z,101041.81
2023-05-05T19:16:25.824Z,101072.69
2023-05-05T19:21:31.057Z,101046.31
2023-05-05T19:26:34.928Z,101053.63
2023-05-05T19:31:39.280Z,101056.25
2023-05-05T19:36:43.263Z,101056.50
2023-05-05T19:41:47.344Z,101052.72
2023-05-05T19:46:51.393Z,101052.22
2023-05-05T19:51:55.322Z,101050.44
2023-05-05T19:56:59.496Z,101036.19
2023-05-05T20:02:03.360Z,101048.88
2023-05-05T20:07:07.438Z,101051.66
2023-05-05T20:12:12.953Z,101045.16
2023-05-05T20:17:20.794Z,101051.44
2023-05-05T20:22:26.992Z,101050.88
2023-05-05T20:27:31.131Z,101013.84
2023-05-05T20:32:35.070Z,101049.66
2023-05-05T20:37:39.139Z,101045.16
2023-05-05T20:42:42.945Z,101054.81
2023-05-05T20:47:46.954Z,101057.84
2023-05-05T20:52:51.042Z,101057.84
2023-05-05T20:57:55.257Z,101063.38
2023-05-05T21:02:59.511Z,101052.69
2023-05-05T21:08:03.478Z,101011.50
2023-05-05T21:13:08.035Z,101064.94
2023-05-05T21:18:12.272Z,101068.28
2023-05-05T21:23:16.169Z,101075.09
2023-05-05T21:28:20.243Z,101065.44
2023-05-05T21:33:24.189Z,101064.50
2023-05-05T21:38:28.112Z,101082.69
2023-05-05T21:43:32.096Z,101068.78
2023-05-05T21:48:36.017Z,101077.00
2023-05-05T21:53:41.079Z,101074.84
2023-05-05T21:58:45.144Z,101087.56
2023-05-05T22:03:49.547Z,101067.09
2023-05-05T22:08:53.508Z,101085.34
2023-05-05T22:13:57.702Z,101082.19
2023-05-05T22:19:02.495Z,101080.94
2023-05-05T22:24:07.732Z,101068.50
2023-05-05T22:29:12.334Z,101075.81
2023-05-05T22:34:19.374Z,101017.06
2023-05-05T22:39:24.325Z,101062.25
2023-05-05T22:44:28.614Z,101075.25
2023-05-05T22:49:32.554Z,101079.69
2023-05-05T22:54:36.726Z,101082.63
2023-05-05T22:59:40.697Z,101073.38
2023-05-05T23:04:45.337Z,101064.91
2023-05-05T23:09:49.819Z,101052.28
2023-05-05T23:14:53.912Z,101069.94
2023-05-05T23:19:58.041Z,101055.66
2023-05-05T23:25:02.098Z,101065.81
2023-05-05T23:30:09.577Z,101065.41
2023-05-05T23:35:13.460Z,101064.09
2023-05-05T23:40:17.693Z,101060.91
2023-05-05T23:45:21.676Z,101075.31
2023-05-05T23:50:26.408Z,101075.81
2023-05-05T23:55:30.844Z,101067.41
